createdAt,value
2023-03-29T00:00:29.719Z,0.96
2023-03-29T00:03:15.650Z,0.93
2023-03-29T00:05:44.866Z,0.93
2023-03-29T00:08:14.695Z,0.94
2023-03-29T00:10:42.418Z,0.95
2023-03-29T00:13:09.265Z,0.95
2023-03-29T00:15:36.270Z,0.95
2023-03-29T00:18:03.046Z,0.92
2023-03-29T00:20:30.169Z,0.95
2023-03-29T00:22:57.010Z,0.89
2023-03-29T00:25:24.320Z,0.85
2023-03-29T00:27:51.150Z,0.78
2023-03-29T00:30:18.243Z,0.63
2023-03-29T00:32:45.976Z,0.65
2023-03-29T00:35:13.072Z,0.50
2023-03-29T00:37:41.320Z,0.38
2023-03-29T00:40:11.700Z,0.34
2023-03-29T00:42:38.525Z,0.38
2023-03-29T00:45:23.429Z,0.34
2023-03-29T00:47:57.248Z,0.26
2023-03-29T00:50:39.388Z,0.29
2023-03-29T00:53:14.766Z,0.25
2023-03-29T00:55:59.129Z,0.24
2023-03-29T00:58:30.652Z,0.27
2023-03-29T01:01:08.637Z,0.24
2023-03-29T01:03:46.244Z,0.21
2023-03-29T01:06:17.843Z,0.16
2023-03-29T01:08:53.644Z,0.21
2023-03-29T01:11:47.077Z,0.19
2023-03-29T01:14:27.537Z,0.15
2023-03-29T01:16:54.657Z,0.13
2023-03-29T01:19:26.535Z,0.11
2023-03-29T01:22:19.917Z,0.13
2023-03-29T01:25:33.811Z,0.15
2023-03-29T01:28:04.696Z,0.13
2023-03-29T01:30:53.364Z,0.07
2023-03-29T01:33:35.469Z,0.09
2023-03-29T01:36:19.080Z,0.13
2023-03-29T01:38:49.681Z,0.06
2023-03-29T01:41:20.228Z,0.14
2023-03-29T01:43:52.945Z,0.09
2023-03-29T01:46:39.471Z,0.10
2023-03-29T01:49:35.995Z,0.06
2023-03-29T01:52:12.691Z,0.05
2023-03-29T01:54:47.322Z,0.06
2023-03-29T01:57:14.912Z,-0.01
2023-03-29T01:59:44.598Z,-0.07
2023-03-29T02:02:14.867Z,-0.13
2023-03-29T02:04:50.229Z,-0.22
2023-03-29T02:07:21.172Z,-0.18
2023-03-29T02:09:52.682Z,-0.16
2023-03-29T02:12:20.764Z,-0.23
2023-03-29T02:14:47.801Z,-0.29
2023-03-29T02:17:20.378Z,-0.32
2023-03-29T02:19:51.144Z,-0.30
2023-03-29T02:22:28.895Z,-0.32
2023-03-29T02:24:59.317Z,-0.30
2023-03-29T02:27:29.160Z,-0.29
2023-03-29T02:29:56.522Z,-0.24
2023-03-29T02:32:41.842Z,-0.34
2023-03-29T02:35:15.053Z,-0.31
2023-03-29T02:37:49.556Z,-0.32
2023-03-29T02:40:18.008Z,-0.33
2023-03-29T02:42:46.152Z,-0.33
2023-03-29T02:45:17.354Z,-0.27
2023-03-29T02:47:50.055Z,-0.32
2023-03-29T02:50:17.924Z,-0.30
2023-03-29T02:52:53.758Z,-0.35
2023-03-29T02:55:24.553Z,-0.35
2023-03-29T02:57:51.370Z,-0.32
2023-03-29T03:00:19.870Z,-0.33
2023-03-29T03:02:47.946Z,-0.41
2023-03-29T03:05:15.117Z,-0.40
2023-03-29T03:07:42.444Z,-0.45
2023-03-29T03:10:10.342Z,-0.42
2023-03-29T03:12:37.533Z,-0.45
2023-03-29T03:15:05.979Z,-0.47
2023-03-29T03:17:33.480Z,-0.57
2023-03-29T03:20:00.672Z,-0.59
2023-03-29T03:22:27.531Z,-0.64
2023-03-29T03:24:54.694Z,-0.70
2023-03-29T03:27:21.749Z,-0.68
2023-03-29T03:29:49.393Z,-0.71
2023-03-29T03:32:16.382Z,-0.74
2023-03-29T03:34:43.693Z,-0.76
2023-03-29T03:37:12.098Z,-0.73
2023-03-29T03:39:39.299Z,-0.74
2023-03-29T03:42:08.374Z,-0.74
2023-03-29T03:44:35.869Z,-0.85
2023-03-29T03:47:02.699Z,-0.84
2023-03-29T03:49:30.060Z,-0.84
2023-03-29T03:51:56.819Z,-0.88
2023-03-29T03:54:27.201Z,-0.83
2023-03-29T03:56:54.281Z,-0.90
2023-03-29T03:59:22.411Z,-0.87
2023-03-29T04:01:49.266Z,-0.90
2023-03-29T04:04:16.638Z,-0.88
2023-03-29T04:06:44.212Z,-0.89
2023-03-29T04:09:11.582Z,-0.93
2023-03-29T04:11:38.650Z,-0.90
2023-03-29T04:14:05.645Z,-0.92
2023-03-29T04:16:32.453Z,-0.87
2023-03-29T04:18:59.489Z,-0.82
2023-03-29T04:21:26.314Z,-0.77
2023-03-29T04:23:53.347Z,-0.73
2023-03-29T04:26:20.126Z,-0.73
2023-03-29T04:28:47.165Z,-0.68
2023-03-29T04:31:15.077Z,-0.66
2023-03-29T04:33:42.549Z,-0.65
2023-03-29T04:36:09.594Z,-0.60
2023-03-29T04:38:36.767Z,-0.61
2023-03-29T04:41:05.065Z,-0.59
2023-03-29T04:43:32.369Z,-0.61
2023-03-29T04:45:59.395Z,-0.60
2023-03-29T04:48:26.702Z,-0.57
2023-03-29T04:50:54.477Z,-0.47
2023-03-29T04:53:22.321Z,-0.41
2023-03-29T04:55:49.244Z,-0.25
2023-03-29T04:58:16.580Z,-0.19
2023-03-29T05:00:43.863Z,-0.06
2023-03-29T05:03:13.499Z,0.14
2023-03-29T05:05:41.557Z,0.26
2023-03-29T05:08:09.562Z,0.32
2023-03-29T05:10:36.867Z,0.54
2023-03-29T05:13:04.133Z,0.57
2023-03-29T05:15:31.451Z,0.65
2023-03-29T05:17:59.120Z,0.68
2023-03-29T05:20:25.980Z,0.77
2023-03-29T05:22:53.700Z,0.86
2023-03-29T05:25:20.836Z,0.92
2023-03-29T05:27:48.056Z,0.99
2023-03-29T05:30:15.510Z,1.05
2023-03-29T05:32:42.866Z,1.10
2023-03-29T05:35:11.383Z,1.22
2023-03-29T05:37:39.109Z,1.27
2023-03-29T05:40:08.562Z,1.30
2023-03-29T05:42:37.891Z,1.41
2023-03-29T05:45:08.149Z,1.53
2023-03-29T05:47:36.116Z,1.60
2023-03-29T05:50:03.089Z,1.65
2023-03-29T05:52:30.200Z,1.75
2023-03-29T05:54:56.978Z,1.83
2023-03-29T05:57:24.270Z,1.97
2023-03-29T05:59:51.271Z,2.05
2023-03-29T06:02:18.931Z,2.05
2023-03-29T06:04:45.982Z,2.10
2023-03-29T06:07:13.106Z,2.18
2023-03-29T06:09:39.903Z,2.24
2023-03-29T06:12:08.587Z,2.21
2023-03-29T06:14:36.476Z,2.20
2023-03-29T06:17:03.770Z,2.32
2023-03-29T06:19:30.637Z,2.41
2023-03-29T06:21:57.789Z,2.51
2023-03-29T06:24:27.640Z,2.55
2023-03-29T06:26:54.671Z,2.61
2023-03-29T06:29:22.155Z,2.77
2023-03-29T06:31:49.314Z,2.85
2023-03-29T06:34:17.397Z,2.85
2023-03-29T06:36:45.930Z,2.84
2023-03-29T06:39:12.729Z,2.91
2023-03-29T06:41:39.865Z,3.06
2023-03-29T06:44:06.770Z,3.02
2023-03-29T06:46:34.208Z,3.08
2023-03-29T06:49:01.473Z,3.14
2023-03-29T06:51:29.424Z,3.25
2023-03-29T06:53:56.306Z,3.29
2023-03-29T06:56:23.907Z,3.26
2023-03-29T06:58:51.590Z,3.29
2023-03-29T07:01:18.647Z,3.42
2023-03-29T07:03:46.661Z,3.61
2023-03-29T07:06:15.051Z,3.53
2023-03-29T07:08:45.113Z,3.46
2023-03-29T07:11:14.245Z,3.42
2023-03-29T07:13:42.582Z,3.50
2023-03-29T07:16:14.421Z,3.55
2023-03-29T07:18:42.992Z,3.66
2023-03-29T07:21:12.380Z,3.72
2023-03-29T07:23:39.866Z,3.75
2023-03-29T07:26:08.100Z,3.78
2023-03-29T07:28:37.582Z,3.80
2023-03-29T07:31:11.704Z,3.71
2023-03-29T07:33:39.364Z,3.65
2023-03-29T07:36:07.080Z,3.84
2023-03-29T07:38:33.981Z,3.85
2023-03-29T07:41:04.829Z,3.90
2023-03-29T07:43:31.958Z,4.26
2023-03-29T07:46:05.373Z,4.46
2023-03-29T07:48:33.768Z,4.52
2023-03-29T07:51:01.508Z,4.60
2023-03-29T07:53:29.829Z,4.60
2023-03-29T07:55:57.150Z,4.57
2023-03-29T07:58:24.165Z,4.74
2023-03-29T08:00:51.263Z,4.99
2023-03-29T08:03:18.281Z,5.14
2023-03-29T08:05:45.480Z,5.12
2023-03-29T08:08:14.140Z,5.12
2023-03-29T08:10:42.532Z,5.01
2023-03-29T08:13:10.281Z,4.82
2023-03-29T08:15:39.515Z,4.86
2023-03-29T08:18:07.850Z,5.10
2023-03-29T08:20:35.281Z,5.18
2023-03-29T08:23:02.409Z,5.35
2023-03-29T08:25:29.899Z,5.68
2023-03-29T08:27:56.884Z,5.85
2023-03-29T08:30:24.365Z,6.00
2023-03-29T08:32:53.584Z,6.15
2023-03-29T08:35:22.691Z,6.41
2023-03-29T08:37:49.646Z,6.32
2023-03-29T08:40:21.589Z,6.85
2023-03-29T08:42:51.054Z,6.99
2023-03-29T08:45:41.300Z,7.40
2023-03-29T08:48:28.892Z,7.00
2023-03-29T08:51:12.998Z,7.09
2023-03-29T08:53:49.049Z,7.11
2023-03-29T08:56:20.878Z,7.13
2023-03-29T08:58:50.425Z,7.89
2023-03-29T09:01:17.845Z,8.29
2023-03-29T09:04:06.734Z,8.65
2023-03-29T09:06:33.959Z,7.98
2023-03-29T09:09:01.738Z,8.59
2023-03-29T09:11:49.813Z,8.80
2023-03-29T09:14:55.695Z,8.55
2023-03-29T09:17:34.336Z,8.32
2023-03-29T09:20:08.219Z,8.03
2023-03-29T09:23:09.085Z,8.41
2023-03-29T09:26:05.469Z,8.76
2023-03-29T09:28:52.137Z,8.48
2023-03-29T09:31:23.411Z,8.49
2023-03-29T09:33:59.871Z,8.23
2023-03-29T09:36:37.072Z,8.59
2023-03-29T09:39:05.736Z,8.62
2023-03-29T09:41:42.681Z,8.66
2023-03-29T09:44:31.112Z,8.82
2023-03-29T09:47:06.815Z,8.91
2023-03-29T09:49:38.327Z,9.28
2023-03-29T09:52:12.011Z,9.31
2023-03-29T09:54:39.309Z,9.33
2023-03-29T09:57:07.098Z,9.82
2023-03-29T09:59:34.238Z,10.45
2023-03-29T10:02:09.646Z,10.16
2023-03-29T10:04:37.209Z,9.85
2023-03-29T10:07:05.743Z,9.57
2023-03-29T10:09:34.161Z,9.50
2023-03-29T10:12:05.750Z,8.87
2023-03-29T10:14:38.302Z,9.09
2023-03-29T10:17:15.669Z,9.63
2023-03-29T10:19:52.171Z,10.08
2023-03-29T10:22:23.349Z,10.26
2023-03-29T10:24:52.797Z,10.25
2023-03-29T10:27:25.704Z,10.53
2023-03-29T10:29:54.312Z,9.20
2023-03-29T10:32:52.121Z,8.77
2023-03-29T10:35:33.435Z,9.89
2023-03-29T10:38:04.924Z,10.37
2023-03-29T10:40:37.351Z,10.93
2023-03-29T10:43:26.312Z,11.46
2023-03-29T10:45:55.900Z,11.80
2023-03-29T10:48:30.486Z,11.81
2023-03-29T10:51:01.065Z,11.39
2023-03-29T10:53:38.088Z,11.63
2023-03-29T10:56:27.115Z,11.53
2023-03-29T10:59:09.109Z,11.89
2023-03-29T11:01:49.455Z,12.30
2023-03-29T11:04:41.041Z,12.75
2023-03-29T11:07:35.611Z,12.27
2023-03-29T11:10:05.090Z,12.57
2023-03-29T11:12:49.368Z,13.49
2023-03-29T11:15:19.155Z,13.53
2023-03-29T11:18:01.322Z,13.84
2023-03-29T11:20:52.861Z,14.03
2023-03-29T11:23:19.888Z,12.86
2023-03-29T11:26:04.308Z,12.78
2023-03-29T11:28:49.583Z,13.52
2023-03-29T11:31:48.495Z,14.23
2023-03-29T11:35:01.590Z,13.83
2023-03-29T11:37:50.424Z,11.72
2023-03-29T11:40:44.967Z,11.88
2023-03-29T11:43:32.928Z,12.00
2023-03-29T11:46:08.886Z,11.94
2023-03-29T11:48:41.898Z,11.41
2023-03-29T11:51:13.165Z,10.11
2023-03-29T11:53:42.843Z,9.72
2023-03-29T11:56:17.458Z,11.49
2023-03-29T11:58:50.585Z,12.01
2023-03-29T12:01:46.403Z,12.23
2023-03-29T12:04:23.091Z,12.07
2023-03-29T12:06:57.478Z,12.93
2023-03-29T12:09:28.593Z,13.03
2023-03-29T12:12:15.568Z,11.93
2023-03-29T12:14:52.968Z,12.26
2023-03-29T12:17:28.190Z,12.04
2023-03-29T12:20:10.386Z,13.10
2023-03-29T12:22:38.142Z,12.89
2023-03-29T12:25:09.687Z,11.60
2023-03-29T12:27:56.192Z,11.27
2023-03-29T12:30:34.155Z,12.11
2023-03-29T12:33:31.427Z,13.04
2023-03-29T12:36:07.447Z,13.63
2023-03-29T12:38:35.862Z,14.48
2023-03-29T12:41:12.547Z,15.51
2023-03-29T12:43:43.392Z,16.42
2023-03-29T12:46:19.096Z,17.48
2023-03-29T12:48:51.007Z,16.16
2023-03-29T12:51:22.333Z,16.44
2023-03-29T12:53:53.158Z,16.68
2023-03-29T12:56:23.693Z,15.70
2023-03-29T12:59:16.880Z,16.73
2023-03-29T13:01:58.635Z,16.64
2023-03-29T13:05:00.316Z,15.38
2023-03-29T13:07:33.873Z,15.12
2023-03-29T13:10:03.693Z,15.07
2023-03-29T13:12:44.682Z,14.99
2023-03-29T13:15:14.728Z,14.12
2023-03-29T13:18:19.322Z,13.87
2023-03-29T13:20:50.901Z,15.53
2023-03-29T13:23:29.965Z,14.61
2023-03-29T13:26:32.910Z,14.95
2023-03-29T13:29:08.377Z,14.46
2023-03-29T13:31:39.832Z,14.53
2023-03-29T13:34:35.450Z,13.37
2023-03-29T13:37:46.573Z,12.99
2023-03-29T13:40:44.327Z,12.44
2023-03-29T13:43:30.853Z,12.34
2023-03-29T13:45:57.587Z,13.77
2023-03-29T13:48:36.814Z,14.32
2023-03-29T13:51:18.972Z,17.39
2023-03-29T13:53:52.966Z,16.00
2023-03-29T13:56:27.183Z,16.61
2023-03-29T13:59:03.675Z,17.75
2023-03-29T14:01:43.607Z,17.83
2023-03-29T14:04:17.433Z,18.02
2023-03-29T14:06:52.799Z,15.33
2023-03-29T14:09:28.214Z,15.25
2023-03-29T14:11:55.466Z,16.47
2023-03-29T14:14:28.583Z,15.50
2023-03-29T14:16:56.729Z,15.65
2023-03-29T14:19:38.224Z,15.97
2023-03-29T14:22:10.885Z,14.98
2023-03-29T14:24:40.397Z,15.30
2023-03-29T14:27:10.230Z,17.49
2023-03-29T14:29:37.628Z,16.83
2023-03-29T14:32:18.802Z,13.72
2023-03-29T14:34:50.885Z,11.82
2023-03-29T14:37:22.868Z,10.77
2023-03-29T14:39:50.857Z,10.98
2023-03-29T14:42:23.182Z,10.47
2023-03-29T14:44:51.102Z,10.55
2023-03-29T14:47:27.448Z,9.93
2023-03-29T14:49:57.033Z,9.88
2023-03-29T14:52:25.881Z,9.91
2023-03-29T14:54:56.643Z,9.82
2023-03-29T14:57:26.361Z,10.01
2023-03-29T14:59:59.040Z,9.24
2023-03-29T15:02:29.655Z,8.99
2023-03-29T15:05:06.034Z,9.31
2023-03-29T15:07:35.160Z,9.38
2023-03-29T15:10:06.543Z,9.59
2023-03-29T15:12:34.247Z,9.61
2023-03-29T15:15:02.619Z,9.62
2023-03-29T15:17:50.241Z,9.71
2023-03-29T15:20:24.564Z,9.60
2023-03-29T15:23:04.582Z,9.51
2023-03-29T15:25:37.388Z,9.60
2023-03-29T15:28:04.717Z,9.43
2023-03-29T15:30:38.138Z,9.41
2023-03-29T15:33:20.961Z,9.40
2023-03-29T15:35:51.314Z,9.13
2023-03-29T15:38:21.747Z,9.40
2023-03-29T15:40:50.801Z,9.39
2023-03-29T15:43:19.789Z,9.36
2023-03-29T15:45:47.812Z,9.40
2023-03-29T15:48:17.861Z,9.41
2023-03-29T15:50:45.279Z,9.45
2023-03-29T15:53:15.608Z,9.51
2023-03-29T15:55:46.230Z,9.39
2023-03-29T15:58:16.254Z,9.09
2023-03-29T16:00:48.327Z,9.26
2023-03-29T16:03:16.306Z,9.34
2023-03-29T16:05:45.372Z,9.29
2023-03-29T16:08:13.267Z,9.20
2023-03-29T16:10:41.456Z,9.20
2023-03-29T16:13:12.224Z,9.00
2023-03-29T16:15:40.749Z,9.01
2023-03-29T16:18:07.736Z,8.96
2023-03-29T16:20:34.914Z,8.97
2023-03-29T16:23:02.376Z,8.87
2023-03-29T16:25:29.883Z,8.96
2023-03-29T16:27:56.672Z,9.23
2023-03-29T16:30:24.951Z,9.15
2023-03-29T16:32:51.836Z,9.12
2023-03-29T16:35:30.209Z,8.97
2023-03-29T16:37:57.104Z,9.07
2023-03-29T16:40:24.873Z,9.18
2023-03-29T16:42:51.955Z,9.12
2023-03-29T16:45:19.679Z,8.90
2023-03-29T16:47:46.617Z,8.97
2023-03-29T16:50:16.398Z,8.99
2023-03-29T16:52:43.709Z,8.96
2023-03-29T16:55:12.870Z,8.90
2023-03-29T16:57:40.302Z,8.92
2023-03-29T17:00:10.843Z,8.86
2023-03-29T17:02:37.653Z,8.97
2023-03-29T17:05:06.101Z,9.02
2023-03-29T17:07:33.583Z,8.99
2023-03-29T17:10:00.727Z,9.01
2023-03-29T17:12:27.543Z,9.04
2023-03-29T17:14:54.605Z,9.03
2023-03-29T17:17:21.423Z,8.92
2023-03-29T17:19:48.547Z,8.89
2023-03-29T17:22:15.318Z,8.87
2023-03-29T17:24:43.596Z,8.77
2023-03-29T17:27:10.409Z,8.65
2023-03-29T17:29:37.568Z,8.78
2023-03-29T17:32:04.523Z,8.65
2023-03-29T17:34:33.073Z,8.70
2023-03-29T17:37:00.556Z,8.69
2023-03-29T17:39:32.148Z,8.54
2023-03-29T17:42:07.300Z,8.44
2023-03-29T17:44:34.740Z,8.32
2023-03-29T17:47:01.706Z,8.28
2023-03-29T17:49:29.030Z,8.33
2023-03-29T17:51:56.196Z,8.35
2023-03-29T17:54:23.252Z,8.20
2023-03-29T17:56:50.555Z,8.15
2023-03-29T17:59:17.879Z,8.10
2023-03-29T18:01:44.811Z,8.19
2023-03-29T18:04:12.473Z,8.14
2023-03-29T18:06:39.412Z,8.25
2023-03-29T18:09:06.488Z,8.13
2023-03-29T18:11:33.342Z,7.99
2023-03-29T18:14:01.237Z,8.20
2023-03-29T18:16:28.768Z,8.19
2023-03-29T18:18:55.867Z,8.20
2023-03-29T18:21:25.479Z,8.15
2023-03-29T18:23:54.359Z,8.12
2023-03-29T18:26:22.900Z,8.07
2023-03-29T18:28:50.963Z,8.17
2023-03-29T18:31:20.892Z,7.96
2023-03-29T18:33:48.276Z,7.96
2023-03-29T18:36:15.576Z,7.88
2023-03-29T18:38:43.696Z,7.85
2023-03-29T18:41:13.441Z,7.77
2023-03-29T18:43:41.540Z,7.93
2023-03-29T18:46:08.721Z,7.93
2023-03-29T18:48:39.037Z,7.96
2023-03-29T18:51:07.460Z,7.85
2023-03-29T18:53:35.843Z,7.83
2023-03-29T18:56:04.413Z,7.80
2023-03-29T18:58:31.729Z,7.80
2023-03-29T19:01:03.684Z,7.83
2023-03-29T19:03:32.260Z,7.83
2023-03-29T19:05:59.146Z,7.84
2023-03-29T19:08:29.098Z,7.76
2023-03-29T19:11:07.760Z,7.76
2023-03-29T19:13:35.598Z,7.78
2023-03-29T19:16:02.895Z,7.78
2023-03-29T19:18:30.373Z,7.77
2023-03-29T19:20:57.186Z,7.75
2023-03-29T19:23:28.414Z,7.82
2023-03-29T19:26:00.716Z,7.75
2023-03-29T19:28:28.679Z,7.77
2023-03-29T19:30:58.001Z,7.81
2023-03-29T19:33:25.497Z,7.79
2023-03-29T19:35:52.861Z,7.81
2023-03-29T19:38:20.672Z,7.69
2023-03-29T19:40:49.353Z,7.75
2023-03-29T19:43:16.918Z,7.60
2023-03-29T19:45:44.937Z,7.54
2023-03-29T19:48:21.769Z,7.69
2023-03-29T19:50:50.275Z,7.64
2023-03-29T19:53:17.784Z,7.53
2023-03-29T19:55:45.316Z,7.53
2023-03-29T19:58:13.141Z,7.56
2023-03-29T20:00:41.868Z,7.64
2023-03-29T20:03:09.947Z,7.58
2023-03-29T20:05:38.524Z,7.68
2023-03-29T20:08:06.742Z,7.66
2023-03-29T20:10:34.665Z,7.64
2023-03-29T20:13:02.388Z,7.61
2023-03-29T20:15:29.229Z,7.62
2023-03-29T20:18:00.418Z,7.68
2023-03-29T20:20:28.455Z,7.61
2023-03-29T20:23:04.546Z,7.64
2023-03-29T20:25:32.869Z,7.60
2023-03-29T20:28:00.570Z,7.59
2023-03-29T20:30:27.354Z,7.58
2023-03-29T20:32:54.780Z,7.52
2023-03-29T20:35:21.782Z,7.46
2023-03-29T20:37:48.912Z,7.47
2023-03-29T20:40:16.004Z,7.52
2023-03-29T20:42:46.234Z,7.59
2023-03-29T20:45:18.816Z,7.61
2023-03-29T20:47:50.293Z,7.73
2023-03-29T20:50:20.372Z,8.00
2023-03-29T20:52:47.475Z,8.01
2023-03-29T20:55:22.219Z,7.95
2023-03-29T20:57:51.329Z,7.82
2023-03-29T21:00:19.803Z,7.87
2023-03-29T21:02:47.263Z,7.84
2023-03-29T21:05:14.336Z,7.85
2023-03-29T21:07:42.364Z,7.88
2023-03-29T21:10:09.873Z,7.91
2023-03-29T21:12:37.243Z,7.85
2023-03-29T21:15:05.537Z,7.74
2023-03-29T21:17:32.730Z,7.63
2023-03-29T21:19:59.553Z,7.63
2023-03-29T21:22:26.590Z,7.68
2023-03-29T21:24:53.401Z,7.66
2023-03-29T21:27:20.466Z,7.67
2023-03-29T21:29:48.068Z,7.56
2023-03-29T21:32:15.477Z,7.51
2023-03-29T21:34:42.237Z,7.55
2023-03-29T21:37:09.374Z,7.52
2023-03-29T21:39:36.300Z,7.48
2023-03-29T21:42:03.731Z,7.47
2023-03-29T21:44:32.519Z,7.60
2023-03-29T21:47:00.963Z,7.51
2023-03-29T21:49:27.824Z,7.42
2023-03-29T21:51:54.914Z,7.39
2023-03-29T21:54:21.804Z,7.39
2023-03-29T21:56:48.829Z,7.38
2023-03-29T21:59:16.057Z,7.56
2023-03-29T22:01:43.125Z,7.50
2023-03-29T22:04:10.015Z,7.47
2023-03-29T22:06:37.306Z,7.49
2023-03-29T22:09:05.184Z,7.50
2023-03-29T22:11:32.378Z,7.46
2023-03-29T22:13:59.221Z,7.46
2023-03-29T22:16:28.367Z,7.66
2023-03-29T22:18:55.291Z,7.48
2023-03-29T22:21:25.238Z,7.47
2023-03-29T22:23:55.133Z,7.40
2023-03-29T22:26:27.612Z,7.42
2023-03-29T22:28:55.420Z,7.59
2023-03-29T22:31:27.205Z,7.54
2023-03-29T22:33:55.114Z,7.68
2023-03-29T22:36:24.822Z,7.55
2023-03-29T22:38:51.835Z,7.46
2023-03-29T22:41:20.371Z,7.40
2023-03-29T22:43:47.415Z,7.35
2023-03-29T22:46:16.198Z,7.54
2023-03-29T22:48:43.259Z,7.50
2023-03-29T22:51:10.621Z,7.36
2023-03-29T22:53:37.431Z,7.66
2023-03-29T22:56:04.788Z,7.61
2023-03-29T22:58:31.772Z,7.54
2023-03-29T23:00:58.960Z,7.52
2023-03-29T23:03:26.555Z,7.45
2023-03-29T23:05:56.373Z,7.35
2023-03-29T23:08:26.325Z,7.31
2023-03-29T23:10:53.372Z,7.38
2023-03-29T23:13:23.538Z,7.29
2023-03-29T23:15:51.707Z,7.25
2023-03-29T23:18:21.207Z,7.20
2023-03-29T23:20:50.589Z,7.13
2023-03-29T23:23:19.054Z,7.10
2023-03-29T23:25:47.568Z,7.08
2023-03-29T23:28:17.018Z,6.99
2023-03-29T23:30:44.214Z,7.13
2023-03-29T23:33:11.739Z,7.01
2023-03-29T23:35:38.856Z,6.99
2023-03-29T23:38:05.683Z,7.10
2023-03-29T23:40:33.256Z,6.99
2023-03-29T23:43:00.159Z,6.86
2023-03-29T23:45:30.150Z,6.85
2023-03-29T23:47:57.399Z,6.77
2023-03-29T23:50:28.496Z,6.75
2023-03-29T23:52:55.467Z,6.80
2023-03-29T23:55:25.445Z,6.79
2023-03-29T23:57:52.338Z,6.80
